PWSweather.com
Personal Weather Stations
Station Observations
TUGLIE
Tuglie Meteo, TuglieIT

Tuglie MeteoTuglieIT

Lat: 40.0726, Lon: 18.1016

Elevation: 270

Station Type: La Crosse WS-2300

http://www.tuglie.com/situazione.asp

Latest ConditionsUpdated 7:00:11 PM GMT+01:01 Sunday, Jan 26, 2020
Currently Today's Max Today's Min Today's Average
Temperature 56.3°F13.5°C 58.8°F14.9°C 53.6°F12.0°C 55.9°F13.3°C
Dew Point 53.7°F12.1°C 53.7°F12.1°C 50.5°F10.3°C 51.8°F11.0°C
Winds 10.1 mph S16.3 kmh S 17.1 mph -27.5 kmh - - 7.0 mph 11.3 kmh
Wind Gusts 18.1 mph29.1 kmh 30.6 mph49.2 kmh - -
Humidity 91% 91% 77% 86%
Pressure 30.02 in1016.6 mb 30.22 in1023.4 mb 30.02 in1016.6 mb -
Precipitation - 0.12 in3.0 mm - -
Hour Temp Dew Point Humidity Winds Wind Gusts Pressure Precip Precip Rate Daily Precip Total
07:00 PM 56.3°F13.5°C 53.7°F12.1°C 91% 10.1 mph S16.3 kmh S 18.1 mph29.1 kmh 30.02 in1016.6 mb - 0.09 in2.3 mm 0.12 in3.0 mm
06:50 PM 56.2°F13.4°C 53.3°F11.8°C 90% 0.9 mph SW1.4 kmh SW 9.4 mph15.1 kmh 30.02 in1016.6 mb - 0.00 in0.0 mm 0.03 in0.8 mm
06:40 PM 56.1°F13.4°C 53.2°F11.8°C 90% 0.1 mph WSW0.2 kmh WSW 3.1 mph5.0 kmh 30.02 in1016.6 mb - 0.00 in0.0 mm 0.03 in0.8 mm
06:30 PM 56.1°F13.4°C 53.2°F11.8°C 90% 5.0 mph SSW8.0 kmh SSW 7.4 mph11.9 kmh 30.03 in1016.9 mb - 0.00 in0.0 mm 0.03 in0.8 mm
06:20 PM 56.1°F13.4°C 52.9°F11.6°C 89% 2.4 mph S3.9 kmh S 5.6 mph9.0 kmh 30.03 in1016.9 mb - 0.00 in0.0 mm 0.03 in0.8 mm
06:10 PM 56.1°F13.4°C 52.9°F11.6°C 89% 3.7 mph S6.0 kmh S 5.6 mph9.0 kmh 30.03 in1016.9 mb - 0.00 in0.0 mm 0.03 in0.8 mm
06:00 PM 56.3°F13.5°C 53.1°F11.7°C 89% 5.0 mph S8.0 kmh S 10.1 mph16.3 kmh 30.04 in1017.3 mb - 0.00 in0.0 mm 0.03 in0.8 mm
05:50 PM 56.3°F13.5°C 52.8°F11.6°C 88% 6.1 mph S9.8 kmh S 8.9 mph14.3 kmh 30.04 in1017.3 mb - 0.00 in0.0 mm 0.03 in0.8 mm
05:40 PM 56.5°F13.6°C 53.0°F11.7°C 88% 7.8 mph SSE12.6 kmh SSE 9.6 mph15.4 kmh 30.03 in1016.9 mb - 0.03 in0.8 mm 0.03 in0.8 mm
05:30 PM 56.7°F13.7°C 53.2°F11.8°C 88% 8.8 mph S14.2 kmh S 16.1 mph25.9 kmh 30.03 in1016.9 mb - 0.00 in0.0 mm 0.00 in0.0 mm
05:20 PM 56.8°F13.8°C 53.3°F11.8°C 88% 6.7 mph S10.8 kmh S 16.8 mph27.0 kmh 30.03 in1016.9 mb - 0.00 in0.0 mm 0.00 in0.0 mm
05:10 PM 57.0°F13.9°C 53.5°F11.9°C 88% 8.2 mph S13.2 kmh S 11.6 mph18.7 kmh 30.03 in1016.9 mb - 0.00 in0.0 mm 0.00 in0.0 mm
05:00 PM 57.0°F13.9°C 53.2°F11.8°C 87% 7.5 mph S12.1 kmh S 7.6 mph12.2 kmh 30.04 in1017.3 mb - 0.00 in0.0 mm 0.00 in0.0 mm
04:50 PM 57.4°F14.1°C 53.2°F11.8°C 86% 6.9 mph S11.1 kmh S 8.5 mph13.7 kmh 30.04 in1017.3 mb - 0.00 in0.0 mm 0.00 in0.0 mm
04:40 PM 57.4°F14.1°C 53.2°F11.8°C 86% 10.1 mph S16.3 kmh S 19.9 mph32.0 kmh 30.04 in1017.3 mb - 0.00 in0.0 mm 0.00 in0.0 mm
04:30 PM 57.4°F14.1°C 53.2°F11.8°C 86% 9.7 mph S15.6 kmh S 16.5 mph26.6 kmh 30.04 in1017.3 mb - 0.00 in0.0 mm 0.00 in0.0 mm
04:20 PM 57.7°F14.3°C 53.3°F11.8°C 85% 8.6 mph S13.8 kmh S 9.6 mph15.4 kmh 30.05 in1017.6 mb - 0.00 in0.0 mm 0.00 in0.0 mm
04:10 PM 57.9°F14.4°C 53.4°F11.9°C 85% 10.9 mph S17.5 kmh S 23.2 mph37.3 kmh 30.05 in1017.6 mb - 0.00 in0.0 mm 0.00 in0.0 mm
04:00 PM 57.9°F14.4°C 53.1°F11.7°C 84% 9.6 mph S15.4 kmh S 16.5 mph26.6 kmh 30.05 in1017.6 mb - 0.00 in0.0 mm 0.00 in0.0 mm
03:50 PM 57.9°F14.4°C 53.1°F11.7°C 84% 4.5 mph SSW7.2 kmh SSW 7.8 mph12.6 kmh 30.05 in1017.6 mb - 0.00 in0.0 mm 0.00 in0.0 mm
03:40 PM 57.9°F14.4°C 53.1°F11.7°C 84% 9.1 mph S14.6 kmh S 11.4 mph18.3 kmh 30.05 in1017.6 mb - 0.00 in0.0 mm 0.00 in0.0 mm
03:30 PM 57.7°F14.3°C 53.3°F11.8°C 85% 10.0 mph S16.1 kmh S 16.1 mph25.9 kmh 30.06 in1017.9 mb - 0.00 in0.0 mm 0.00 in0.0 mm
03:20 PM 57.9°F14.4°C 53.1°F11.7°C 84% 10.2 mph S16.4 kmh S 13.9 mph22.4 kmh 30.06 in1017.9 mb - 0.00 in0.0 mm 0.00 in0.0 mm
03:10 PM 57.7°F14.3°C 53.3°F11.8°C 85% 13.9 mph S22.4 kmh S 20.1 mph32.3 kmh 30.06 in1017.9 mb - 0.00 in0.0 mm 0.00 in0.0 mm
03:00 PM 57.7°F14.3°C 53.3°F11.8°C 85% 8.6 mph S13.8 kmh S 12.7 mph20.4 kmh 30.06 in1017.9 mb - 0.00 in0.0 mm 0.00 in0.0 mm
02:50 PM 57.7°F14.3°C 53.3°F11.8°C 85% 12.6 mph S20.3 kmh S 15.0 mph24.1 kmh 30.06 in1017.9 mb - 0.00 in0.0 mm 0.00 in0.0 mm
02:40 PM 57.4°F14.1°C 53.5°F11.9°C 87% 11.2 mph S18.0 kmh S 20.6 mph33.2 kmh 30.06 in1017.9 mb - 0.00 in0.0 mm 0.00 in0.0 mm
02:30 PM 56.8°F13.8°C 53.0°F11.7°C 87% 9.0 mph S14.5 kmh S 11.4 mph18.3 kmh 30.05 in1017.6 mb - 0.00 in0.0 mm 0.00 in0.0 mm
02:20 PM 56.5°F13.6°C 53.0°F11.7°C 88% 7.9 mph SSE12.7 kmh SSE 17.9 mph28.8 kmh 30.06 in1017.9 mb - 0.00 in0.0 mm 0.00 in0.0 mm
02:10 PM 56.3°F13.5°C 52.8°F11.6°C 88% 11.9 mph SSW19.2 kmh SSW 18.1 mph29.1 kmh 30.06 in1017.9 mb - 0.00 in0.0 mm 0.00 in0.0 mm
02:00 PM 56.5°F13.6°C 52.3°F11.3°C 86% 10.8 mph S17.4 kmh S 12.5 mph20.1 kmh 30.07 in1018.3 mb - 0.00 in0.0 mm 0.00 in0.0 mm
01:50 PM 56.9°F13.8°C 52.5°F11.4°C 85% 7.9 mph S12.7 kmh S 11.6 mph18.7 kmh 30.07 in1018.3 mb - 0.00 in0.0 mm 0.00 in0.0 mm
01:40 PM 57.9°F14.4°C 52.1°F11.2°C 81% 10.7 mph S17.2 kmh S 16.3 mph26.2 kmh 30.07 in1018.3 mb - 0.00 in0.0 mm 0.00 in0.0 mm
01:30 PM 58.3°F14.6°C 52.1°F11.2°C 80% 12.9 mph SSE20.8 kmh SSE 13.2 mph21.2 kmh 30.08 in1018.6 mb - 0.00 in0.0 mm 0.00 in0.0 mm
01:20 PM 58.8°F14.9°C 52.6°F11.4°C 80% 12.6 mph S20.3 kmh S 30.6 mph49.2 kmh 30.09 in1019.0 mb - 0.00 in0.0 mm 0.00 in0.0 mm
01:10 PM 58.0°F14.4°C 52.2°F11.2°C 81% 11.7 mph S18.8 kmh S 19.7 mph31.7 kmh 30.09 in1019.0 mb - 0.00 in0.0 mm 0.00 in0.0 mm
01:00 PM 57.6°F14.2°C 52.1°F11.2°C 82% 10.6 mph S17.1 kmh S 13.4 mph21.6 kmh 30.10 in1019.3 mb - 0.00 in0.0 mm 0.00 in0.0 mm
12:50 PM 57.6°F14.2°C 51.8°F11.0°C 81% 8.8 mph S14.2 kmh S 10.9 mph17.5 kmh 30.11 in1019.6 mb - 0.00 in0.0 mm 0.00 in0.0 mm
12:40 PM 57.9°F14.4°C 51.8°F11.0°C 80% 7.9 mph S12.7 kmh S 13.2 mph21.2 kmh 30.11 in1019.6 mb - 0.00 in0.0 mm 0.00 in0.0 mm
12:30 PM 58.1°F14.5°C 51.6°F10.9°C 79% 14.7 mph S23.7 kmh S 20.6 mph33.2 kmh 30.12 in1020.0 mb - 0.00 in0.0 mm 0.00 in0.0 mm
12:20 PM 57.9°F14.4°C 51.4°F10.8°C 79% 8.8 mph S14.2 kmh S 18.1 mph29.1 kmh 30.13 in1020.3 mb - 0.00 in0.0 mm 0.00 in0.0 mm
12:10 PM 57.9°F14.4°C 51.1°F10.6°C 78% 11.6 mph SSW18.7 kmh SSW 14.5 mph23.3 kmh 30.13 in1020.3 mb - 0.00 in0.0 mm 0.00 in0.0 mm
12:00 PM 57.9°F14.4°C 51.1°F10.6°C 78% 17.1 mph S27.5 kmh S 23.5 mph37.8 kmh 30.13 in1020.3 mb - 0.00 in0.0 mm 0.00 in0.0 mm
11:50 AM 58.0°F14.4°C 50.8°F10.4°C 77% 10.4 mph S16.7 kmh S 15.9 mph25.6 kmh 30.14 in1020.7 mb - 0.00 in0.0 mm 0.00 in0.0 mm
11:40 AM 57.9°F14.4°C 50.8°F10.4°C 77% 10.9 mph SSE17.5 kmh SSE 17.0 mph27.4 kmh 30.14 in1020.7 mb - 0.00 in0.0 mm 0.00 in0.0 mm
11:30 AM 57.7°F14.3°C 50.6°F10.3°C 77% 13.1 mph S21.1 kmh S 23.9 mph38.5 kmh 30.15 in1021.0 mb - 0.00 in0.0 mm 0.00 in0.0 mm
11:20 AM 57.7°F14.3°C 50.6°F10.3°C 77% 10.4 mph SSW16.7 kmh SSW 15.9 mph25.6 kmh 30.16 in1021.3 mb - 0.00 in0.0 mm 0.00 in0.0 mm
11:10 AM 58.1°F14.5°C 50.9°F10.5°C 77% 9.1 mph SSE14.6 kmh SSE 13.4 mph21.6 kmh 30.16 in1021.3 mb - 0.00 in0.0 mm 0.00 in0.0 mm
10:50 AM 58.1°F14.5°C 51.3°F10.7°C 78% 10.5 mph S16.9 kmh S 24.1 mph38.8 kmh 30.16 in1021.3 mb - 0.00 in0.0 mm 0.00 in0.0 mm
10:40 AM 57.7°F14.3°C 51.3°F10.7°C 79% 13.9 mph S22.4 kmh S 21.5 mph34.6 kmh 30.16 in1021.3 mb - 0.00 in0.0 mm 0.00 in0.0 mm
10:30 AM 57.7°F14.3°C 51.3°F10.7°C 79% 7.5 mph S12.1 kmh S 11.8 mph19.0 kmh 30.16 in1021.3 mb - 0.00 in0.0 mm 0.00 in0.0 mm
10:20 AM 57.4°F14.1°C 51.3°F10.7°C 80% 7.5 mph SSE12.1 kmh SSE 14.1 mph22.7 kmh 30.16 in1021.3 mb - 0.00 in0.0 mm 0.00 in0.0 mm
10:10 AM 57.4°F14.1°C 51.3°F10.7°C 80% 10.6 mph S17.1 kmh S 14.3 mph23.0 kmh 30.17 in1021.7 mb - 0.00 in0.0 mm 0.00 in0.0 mm
10:00 AM 57.4°F14.1°C 51.3°F10.7°C 80% 6.0 mph S9.7 kmh S 18.1 mph29.1 kmh 30.17 in1021.7 mb - 0.00 in0.0 mm 0.00 in0.0 mm
09:50 AM 57.4°F14.1°C 51.6°F10.9°C 81% 5.1 mph S8.2 kmh S 14.7 mph23.7 kmh 30.16 in1021.3 mb - 0.00 in0.0 mm 0.00 in0.0 mm
09:40 AM 56.8°F13.8°C 51.4°F10.8°C 82% 6.4 mph SSW10.3 kmh SSW 7.6 mph12.2 kmh 30.16 in1021.3 mb - 0.00 in0.0 mm 0.00 in0.0 mm
09:30 AM 56.2°F13.4°C 51.1°F10.6°C 83% 4.3 mph S6.9 kmh S 11.2 mph18.0 kmh 30.17 in1021.7 mb - 0.00 in0.0 mm 0.00 in0.0 mm
09:20 AM 56.1°F13.4°C 51.0°F10.6°C 83% 4.7 mph SSW7.6 kmh SSW 6.0 mph9.7 kmh 30.17 in1021.7 mb - 0.00 in0.0 mm 0.00 in0.0 mm
09:10 AM 55.9°F13.3°C 50.9°F10.5°C 83% 6.0 mph SSW9.7 kmh SSW 12.7 mph20.4 kmh 30.17 in1021.7 mb - 0.00 in0.0 mm 0.00 in0.0 mm
09:00 AM 55.9°F13.3°C 51.2°F10.7°C 84% 5.8 mph S9.3 kmh S 10.5 mph16.9 kmh 30.16 in1021.3 mb - 0.00 in0.0 mm 0.00 in0.0 mm
08:50 AM 55.8°F13.2°C 51.0°F10.6°C 84% 4.1 mph SSW6.6 kmh SSW 6.9 mph11.1 kmh 30.17 in1021.7 mb - 0.00 in0.0 mm 0.00 in0.0 mm
08:40 AM 55.6°F13.1°C 50.9°F10.5°C 84% 6.6 mph S10.6 kmh S 9.6 mph15.4 kmh 30.17 in1021.7 mb - 0.00 in0.0 mm 0.00 in0.0 mm
08:30 AM 55.6°F13.1°C 51.1°F10.6°C 85% 5.9 mph S9.5 kmh S 17.4 mph28.0 kmh 30.18 in1022.0 mb - 0.00 in0.0 mm 0.00 in0.0 mm
08:20 AM 55.4°F13.0°C 51.0°F10.6°C 85% 8.1 mph S13.0 kmh S 13.9 mph22.4 kmh 30.17 in1021.7 mb - 0.00 in0.0 mm 0.00 in0.0 mm
08:10 AM 55.2°F12.9°C 51.1°F10.6°C 86% 5.5 mph S8.9 kmh S 9.6 mph15.4 kmh 30.17 in1021.7 mb - 0.00 in0.0 mm 0.00 in0.0 mm
07:50 AM 55.1°F12.8°C 51.3°F10.7°C 87% 6.1 mph S9.8 kmh S 9.6 mph15.4 kmh 30.16 in1021.3 mb - 0.00 in0.0 mm 0.00 in0.0 mm
07:40 AM 55.0°F12.8°C 51.2°F10.7°C 87% 5.6 mph S9.0 kmh S 6.5 mph10.5 kmh 30.16 in1021.3 mb - 0.00 in0.0 mm 0.00 in0.0 mm
07:30 AM 54.7°F12.6°C 50.9°F10.5°C 87% 7.0 mph S11.3 kmh S 9.8 mph15.8 kmh 30.16 in1021.3 mb - 0.00 in0.0 mm 0.00 in0.0 mm
07:20 AM 54.7°F12.6°C 50.9°F10.5°C 87% 4.4 mph S7.1 kmh S 6.5 mph10.5 kmh 30.17 in1021.7 mb - 0.00 in0.0 mm 0.00 in0.0 mm
07:10 AM 54.5°F12.5°C 50.7°F10.4°C 87% 4.4 mph SSW7.1 kmh SSW 10.7 mph17.2 kmh 30.16 in1021.3 mb - 0.00 in0.0 mm 0.00 in0.0 mm
07:00 AM 54.3°F12.4°C 50.5°F10.3°C 87% 6.4 mph S10.3 kmh S 8.0 mph12.9 kmh 30.17 in1021.7 mb - 0.00 in0.0 mm 0.00 in0.0 mm
06:50 AM 54.0°F12.2°C 50.8°F10.4°C 89% 1.8 mph S2.9 kmh S 6.7 mph10.8 kmh 30.17 in1021.7 mb - 0.00 in0.0 mm 0.00 in0.0 mm
06:40 AM 53.9°F12.2°C 50.7°F10.4°C 89% 5.2 mph S8.4 kmh S 6.3 mph10.1 kmh 30.16 in1021.3 mb - 0.00 in0.0 mm 0.00 in0.0 mm
06:30 AM 53.8°F12.1°C 50.6°F10.3°C 89% 6.1 mph S9.8 kmh S 9.6 mph15.4 kmh 30.16 in1021.3 mb - 0.00 in0.0 mm 0.00 in0.0 mm
06:20 AM 53.8°F12.1°C 50.6°F10.3°C 89% 2.4 mph S3.9 kmh S 8.3 mph13.4 kmh 30.17 in1021.7 mb - 0.00 in0.0 mm 0.00 in0.0 mm
06:10 AM 53.8°F12.1°C 50.6°F10.3°C 89% 0.8 mph S1.3 kmh S 8.0 mph12.9 kmh 30.16 in1021.3 mb - 0.00 in0.0 mm 0.00 in0.0 mm
06:00 AM 53.8°F12.1°C 50.6°F10.3°C 89% 3.6 mph S5.8 kmh S 8.9 mph14.3 kmh 30.17 in1021.7 mb - 0.00 in0.0 mm 0.00 in0.0 mm
05:50 AM 53.7°F12.1°C 50.6°F10.3°C 89% 2.7 mph SSW4.3 kmh SSW 3.6 mph5.8 kmh 30.17 in1021.7 mb - 0.00 in0.0 mm 0.00 in0.0 mm
05:40 AM 53.8°F12.1°C 50.6°F10.3°C 89% 1.8 mph SSW2.9 kmh SSW 3.8 mph6.1 kmh 30.16 in1021.3 mb - 0.00 in0.0 mm 0.00 in0.0 mm
05:30 AM 53.8°F12.1°C 50.9°F10.5°C 90% 4.8 mph S7.7 kmh S 6.3 mph10.1 kmh 30.16 in1021.3 mb - 0.00 in0.0 mm 0.00 in0.0 mm
05:20 AM 53.7°F12.1°C 50.8°F10.4°C 90% 3.9 mph S6.3 kmh S 8.0 mph12.9 kmh 30.16 in1021.3 mb - 0.00 in0.0 mm 0.00 in0.0 mm
05:10 AM 53.8°F12.1°C 50.9°F10.5°C 90% 2.5 mph SW4.0 kmh SW 4.5 mph7.2 kmh 30.16 in1021.3 mb - 0.00 in0.0 mm 0.00 in0.0 mm
04:50 AM 53.8°F12.1°C 50.9°F10.5°C 90% 2.2 mph S3.5 kmh S 5.8 mph9.3 kmh 30.16 in1021.3 mb - 0.00 in0.0 mm 0.00 in0.0 mm
04:40 AM 53.8°F12.1°C 50.9°F10.5°C 90% 3.8 mph S6.1 kmh S 9.4 mph15.1 kmh 30.16 in1021.3 mb - 0.00 in0.0 mm 0.00 in0.0 mm
04:30 AM 53.8°F12.1°C 50.9°F10.5°C 90% 3.8 mph S6.1 kmh S 8.0 mph12.9 kmh 30.16 in1021.3 mb - 0.00 in0.0 mm 0.00 in0.0 mm
04:20 AM 53.8°F12.1°C 50.9°F10.5°C 90% 2.8 mph S4.5 kmh S 3.8 mph6.1 kmh 30.17 in1021.7 mb - 0.00 in0.0 mm 0.00 in0.0 mm
04:10 AM 53.6°F12.0°C 50.7°F10.4°C 90% 4.4 mph SSW7.1 kmh SSW 6.9 mph11.1 kmh 30.17 in1021.7 mb - 0.00 in0.0 mm 0.00 in0.0 mm
04:00 AM 53.6°F12.0°C 50.7°F10.4°C 90% 3.8 mph S6.1 kmh S 6.5 mph10.5 kmh 30.17 in1021.7 mb - 0.00 in0.0 mm 0.00 in0.0 mm
03:50 AM 53.8°F12.1°C 50.9°F10.5°C 90% 6.3 mph S10.1 kmh S 8.3 mph13.4 kmh 30.18 in1022.0 mb - 0.00 in0.0 mm 0.00 in0.0 mm
03:40 AM 53.8°F12.1°C 50.9°F10.5°C 90% 4.6 mph S7.4 kmh S 6.9 mph11.1 kmh 30.18 in1022.0 mb - 0.00 in0.0 mm 0.00 in0.0 mm
03:30 AM 53.8°F12.1°C 50.9°F10.5°C 90% 6.3 mph S10.1 kmh S 10.5 mph16.9 kmh 30.18 in1022.0 mb - 0.00 in0.0 mm 0.00 in0.0 mm
03:20 AM 53.8°F12.1°C 50.9°F10.5°C 90% 4.9 mph SSW7.9 kmh SSW 8.3 mph13.4 kmh 30.18 in1022.0 mb - 0.00 in0.0 mm 0.00 in0.0 mm
03:10 AM 54.0°F12.2°C 51.1°F10.6°C 90% 7.9 mph S12.7 kmh S 9.6 mph15.4 kmh 30.18 in1022.0 mb - 0.00 in0.0 mm 0.00 in0.0 mm
03:00 AM 54.0°F12.2°C 51.2°F10.7°C 90% 6.0 mph S9.7 kmh S 8.7 mph14.0 kmh 30.19 in1022.4 mb - 0.00 in0.0 mm 0.00 in0.0 mm
02:50 AM 54.1°F12.3°C 51.0°F10.6°C 89% 3.0 mph S4.8 kmh S 8.5 mph13.7 kmh 30.19 in1022.4 mb - 0.00 in0.0 mm 0.00 in0.0 mm
02:40 AM 54.3°F12.4°C 51.1°F10.6°C 89% 3.4 mph S5.5 kmh S 6.5 mph10.5 kmh 30.19 in1022.4 mb - 0.00 in0.0 mm 0.00 in0.0 mm
02:30 AM 54.3°F12.4°C 51.1°F10.6°C 89% 1.0 mph S1.6 kmh S 3.1 mph5.0 kmh 30.20 in1022.7 mb - 0.00 in0.0 mm 0.00 in0.0 mm
02:20 AM 54.7°F12.6°C 51.5°F10.8°C 89% 6.7 mph S10.8 kmh S 10.9 mph17.5 kmh 30.20 in1022.7 mb - 0.00 in0.0 mm 0.00 in0.0 mm
02:10 AM 54.7°F12.6°C 51.5°F10.8°C 89% 6.5 mph S10.5 kmh S 8.3 mph13.4 kmh 30.20 in1022.7 mb - 0.00 in0.0 mm 0.00 in0.0 mm
01:50 AM 54.7°F12.6°C 51.5°F10.8°C 89% 4.8 mph S7.7 kmh S 6.3 mph10.1 kmh 30.20 in1022.7 mb - 0.00 in0.0 mm 0.00 in0.0 mm
01:40 AM 54.7°F12.6°C 51.5°F10.8°C 89% 6.0 mph S9.7 kmh S 8.5 mph13.7 kmh 30.20 in1022.7 mb - 0.00 in0.0 mm 0.00 in0.0 mm
01:30 AM 54.7°F12.6°C 51.5°F10.8°C 89% 5.0 mph S8.0 kmh S 10.5 mph16.9 kmh 30.20 in1022.7 mb - 0.00 in0.0 mm 0.00 in0.0 mm
01:20 AM 54.7°F12.6°C 51.5°F10.8°C 89% 6.3 mph SW10.1 kmh SW 10.9 mph17.5 kmh 30.21 in1023.0 mb - 0.00 in0.0 mm 0.00 in0.0 mm
01:10 AM 54.9°F12.7°C 51.7°F10.9°C 89% 7.6 mph S12.2 kmh S 12.5 mph20.1 kmh 30.21 in1023.0 mb - 0.00 in0.0 mm 0.00 in0.0 mm
01:00 AM 54.9°F12.7°C 51.7°F10.9°C 89% 6.3 mph SSW10.1 kmh SSW 7.4 mph11.9 kmh 30.21 in1023.0 mb - 0.00 in0.0 mm 0.00 in0.0 mm
12:50 AM 55.0°F12.8°C 51.9°F11.1°C 89% 7.9 mph S12.7 kmh S 11.2 mph18.0 kmh 30.21 in1023.0 mb - 0.00 in0.0 mm 0.00 in0.0 mm
12:40 AM 55.0°F12.8°C 51.9°F11.1°C 89% 6.4 mph SW10.3 kmh SW 10.9 mph17.5 kmh 30.21 in1023.0 mb - 0.00 in0.0 mm 0.00 in0.0 mm
12:30 AM 55.0°F12.8°C 51.9°F11.1°C 89% 6.2 mph SW10.0 kmh SW 11.2 mph18.0 kmh 30.21 in1023.0 mb - 0.00 in0.0 mm 0.00 in0.0 mm
12:20 AM 55.2°F12.9°C 52.0°F11.1°C 89% 5.6 mph SSW9.0 kmh SSW 10.5 mph16.9 kmh 30.22 in1023.4 mb - 0.00 in0.0 mm 0.00 in0.0 mm
12:10 AM 55.2°F12.9°C 52.0°F11.1°C 89% 4.0 mph SSW6.4 kmh SSW 9.6 mph15.4 kmh 30.22 in1023.4 mb - 0.00 in0.0 mm 0.00 in0.0 mm
12:00 AM 55.4°F13.0°C 51.9°F11.1°C 88% 7.0 mph SW11.3 kmh SW 9.2 mph14.8 kmh 30.22 in1023.4 mb - 0.00 in0.0 mm 0.00 in0.0 mm